Waterville, Maine
Current Conditions -  °F | °C
As of 6:55 PM on Friday 31 Oct 2014 (Local Time) from KWVL Reporting Station
Clear Clear  
Wind Chill: 39°   Ceiling: Unl
Heat Index: 43°   Visibility: 10mi
Dew Point: 28°   Wind: 6mph
Humidity: 57%   Direction: 30°NNE
Pressure: 30.02"   Gusts: NA
Location:  44.55°N, 69.63°W
Report Text: KWVL 312255Z 03005KT 10SM CLR 06/M02 A3002 RMK AO1
Loading
Personal Weather Stations






























Interactive Weather Map
Tropical Storm Tracking
New forecast layout! Learn more

10-Day Weather Forecast

Advertisements
Track Severe Weather on mobile